sensor_id;sensor_type;location;lat;lon;timestamp;temperature;humidity
40151;DHT22;25866;52.420;10.640;2023-03-14T00:01:24;10.70;99.90
40151;DHT22;25866;52.420;10.640;2023-03-14T00:03:50;10.70;99.90
40151;DHT22;25866;52.420;10.640;2023-03-14T00:06:17;10.70;99.90
40151;DHT22;25866;52.420;10.640;2023-03-14T00:08:44;10.60;99.90
40151;DHT22;25866;52.420;10.640;2023-03-14T00:11:15;10.60;99.90
40151;DHT22;25866;52.420;10.640;2023-03-14T00:13:41;10.50;99.90
40151;DHT22;25866;52.420;10.640;2023-03-14T00:16:11;10.50;99.90
40151;DHT22;25866;52.420;10.640;2023-03-14T00:18:38;10.50;99.90
40151;DHT22;25866;52.420;10.640;2023-03-14T00:21:04;10.40;99.90
40151;DHT22;25866;52.420;10.640;2023-03-14T00:23:32;10.40;99.90
40151;DHT22;25866;52.420;10.640;2023-03-14T00:26:03;10.40;99.90
40151;DHT22;25866;52.420;10.640;2023-03-14T00:28:29;10.40;99.90
40151;DHT22;25866;52.420;10.640;2023-03-14T00:30:55;10.30;99.90
40151;DHT22;25866;52.420;10.640;2023-03-14T00:33:21;10.30;99.90
40151;DHT22;25866;52.420;10.640;2023-03-14T00:36:15;10.30;99.90
40151;DHT22;25866;52.420;10.640;2023-03-14T00:38:42;10.20;99.90
40151;DHT22;25866;52.420;10.640;2023-03-14T00:41:13;10.20;99.90
40151;DHT22;25866;52.420;10.640;2023-03-14T00:43:39;10.30;99.90
40151;DHT22;25866;52.420;10.640;2023-03-14T00:46:05;10.30;99.90
40151;DHT22;25866;52.420;10.640;2023-03-14T00:48:31;10.30;99.90
40151;DHT22;25866;52.420;10.640;2023-03-14T00:50:57;10.40;99.90
40151;DHT22;25866;52.420;10.640;2023-03-14T00:53:23;10.50;99.90
40151;DHT22;25866;52.420;10.640;2023-03-14T00:55:49;10.60;99.90
40151;DHT22;25866;52.420;10.640;2023-03-14T00:58:16;10.70;99.90
40151;DHT22;25866;52.420;10.640;2023-03-14T01:00:43;10.80;99.90
40151;DHT22;25866;52.420;10.640;2023-03-14T01:03:10;10.80;99.90
40151;DHT22;25866;52.420;10.640;2023-03-14T01:05:36;10.90;99.90
40151;DHT22;25866;52.420;10.640;2023-03-14T01:08:02;11.00;99.90
40151;DHT22;25866;52.420;10.640;2023-03-14T01:10:28;11.00;99.90
40151;DHT22;25866;52.420;10.640;2023-03-14T01:12:54;11.00;99.90
40151;DHT22;25866;52.420;10.640;2023-03-14T01:15:21;11.10;99.90
40151;DHT22;25866;52.420;10.640;2023-03-14T01:17:47;11.10;99.90
40151;DHT22;25866;52.420;10.640;2023-03-14T01:20:14;11.10;99.90
40151;DHT22;25866;52.420;10.640;2023-03-14T01:22:41;11.00;99.90
40151;DHT22;25866;52.420;10.640;2023-03-14T01:25:09;11.00;99.90
40151;DHT22;25866;52.420;10.640;2023-03-14T01:27:35;11.00;99.90
40151;DHT22;25866;52.420;10.640;2023-03-14T01:30:02;11.00;99.90
40151;DHT22;25866;52.420;10.640;2023-03-14T01:32:28;11.00;99.90
40151;DHT22;25866;52.420;10.640;2023-03-14T01:34:53;11.00;99.90
40151;DHT22;25866;52.420;10.640;2023-03-14T01:37:19;11.00;99.90
40151;DHT22;25866;52.420;10.640;2023-03-14T01:39:47;11.00;99.90
40151;DHT22;25866;52.420;10.640;2023-03-14T01:42:14;11.00;99.90
40151;DHT22;25866;52.420;10.640;2023-03-14T01:47:53;10.90;99.90
40151;DHT22;25866;52.420;10.640;2023-03-14T01:50:19;11.00;99.90
40151;DHT22;25866;52.420;10.640;2023-03-14T01:52:47;10.90;99.90
40151;DHT22;25866;52.420;10.640;2023-03-14T01:55:25;10.90;99.90
40151;DHT22;25866;52.420;10.640;2023-03-14T01:57:54;10.80;99.90
40151;DHT22;25866;52.420;10.640;2023-03-14T02:00:23;10.70;99.90
40151;DHT22;25866;52.420;10.640;2023-03-14T02:03:01;10.80;99.90
40151;DHT22;25866;52.420;10.640;2023-03-14T02:05:34;10.80;99.90
40151;DHT22;25866;52.420;10.640;2023-03-14T02:08:02;10.80;99.90
40151;DHT22;25866;52.420;10.640;2023-03-14T02:10:33;10.90;99.90
40151;DHT22;25866;52.420;10.640;2023-03-14T02:13:01;11.00;99.90
40151;DHT22;25866;52.420;10.640;2023-03-14T02:15:28;10.90;99.90
40151;DHT22;25866;52.420;10.640;2023-03-14T02:17:54;10.90;99.90
40151;DHT22;25866;52.420;10.640;2023-03-14T02:22:52;11.00;99.90
40151;DHT22;25866;52.420;10.640;2023-03-14T02:25:44;11.00;99.90
40151;DHT22;25866;52.420;10.640;2023-03-14T02:28:12;10.90;99.90
40151;DHT22;25866;52.420;10.640;2023-03-14T02:30:38;10.90;99.90
40151;DHT22;25866;52.420;10.640;2023-03-14T02:33:06;11.00;99.90
40151;DHT22;25866;52.420;10.640;2023-03-14T02:35:38;11.00;99.90
40151;DHT22;25866;52.420;10.640;2023-03-14T02:38:29;10.90;99.90
40151;DHT22;25866;52.420;10.640;2023-03-14T02:40:56;10.90;99.90
40151;DHT22;25866;52.420;10.640;2023-03-14T02:43:22;10.90;99.90
40151;DHT22;25866;52.420;10.640;2023-03-14T02:45:49;10.80;99.90
40151;DHT22;25866;52.420;10.640;2023-03-14T02:48:25;10.90;99.90
40151;DHT22;25866;52.420;10.640;2023-03-14T02:50:54;10.80;99.90
40151;DHT22;25866;52.420;10.640;2023-03-14T02:53:29;10.70;99.90
40151;DHT22;25866;52.420;10.640;2023-03-14T02:55:57;10.70;99.90
40151;DHT22;25866;52.420;10.640;2023-03-14T02:58:23;10.70;99.90
40151;DHT22;25866;52.420;10.640;2023-03-14T03:00:49;10.70;99.90
40151;DHT22;25866;52.420;10.640;2023-03-14T03:03:15;10.70;99.90
40151;DHT22;25866;52.420;10.640;2023-03-14T03:05:41;10.70;99.90
40151;DHT22;25866;52.420;10.640;2023-03-14T03:08:08;10.70;99.90
40151;DHT22;25866;52.420;10.640;2023-03-14T03:10:34;10.70;99.90
40151;DHT22;25866;52.420;10.640;2023-03-14T03:13:00;10.70;99.90
40151;DHT22;25866;52.420;10.640;2023-03-14T03:17:55;10.60;99.90
40151;DHT22;25866;52.420;10.640;2023-03-14T03:20:21;10.60;99.90
40151;DHT22;25866;52.420;10.640;2023-03-14T03:22:46;10.50;99.90
40151;DHT22;25866;52.420;10.640;2023-03-14T03:25:12;10.60;99.90
40151;DHT22;25866;52.420;10.640;2023-03-14T03:27:38;10.60;99.90
40151;DHT22;25866;52.420;10.640;2023-03-14T03:30:05;10.50;99.90
40151;DHT22;25866;52.420;10.640;2023-03-14T03:32:32;10.50;99.90
40151;DHT22;25866;52.420;10.640;2023-03-14T03:34:57;10.40;99.90
40151;DHT22;25866;52.420;10.640;2023-03-14T03:37:23;10.40;99.90
40151;DHT22;25866;52.420;10.640;2023-03-14T03:39:52;10.40;99.90
40151;DHT22;25866;52.420;10.640;2023-03-14T03:42:19;10.40;99.90
40151;DHT22;25866;52.420;10.640;2023-03-14T03:44:45;10.40;99.90
40151;DHT22;25866;52.420;10.640;2023-03-14T03:47:10;10.40;99.90
40151;DHT22;25866;52.420;10.640;2023-03-14T03:49:36;10.40;99.90
40151;DHT22;25866;52.420;10.640;2023-03-14T03:52:02;10.30;99.90
40151;DHT22;25866;52.420;10.640;2023-03-14T03:54:28;10.30;99.90
40151;DHT22;25866;52.420;10.640;2023-03-14T03:56:54;10.20;99.90
40151;DHT22;25866;52.420;10.640;2023-03-14T03:59:20;10.20;99.90
40151;DHT22;25866;52.420;10.640;2023-03-14T04:01:46;10.20;99.90
40151;DHT22;25866;52.420;10.640;2023-03-14T04:04:12;10.20;99.90
40151;DHT22;25866;52.420;10.640;2023-03-14T04:06:38;10.20;99.90
40151;DHT22;25866;52.420;10.640;2023-03-14T04:09:04;10.10;99.90
40151;DHT22;25866;52.420;10.640;2023-03-14T04:11:30;10.20;99.90
40151;DHT22;25866;52.420;10.640;2023-03-14T04:13:56;10.20;99.90
40151;DHT22;25866;52.420;10.640;2023-03-14T04:16:23;10.20;99.90
40151;DHT22;25866;52.420;10.640;2023-03-14T04:18:50;10.10;99.90
40151;DHT22;25866;52.420;10.640;2023-03-14T04:21:16;10.10;99.90
40151;DHT22;25866;52.420;10.640;2023-03-14T04:23:42;10.10;99.90
40151;DHT22;25866;52.420;10.640;2023-03-14T04:26:07;10.10;99.90
40151;DHT22;25866;52.420;10.640;2023-03-14T04:28:34;10.00;99.90
40151;DHT22;25866;52.420;10.640;2023-03-14T04:31:14;9.90;99.90
40151;DHT22;25866;52.420;10.640;2023-03-14T04:33:40;10.00;99.90
40151;DHT22;25866;52.420;10.640;2023-03-14T04:36:07;10.00;99.90
40151;DHT22;25866;52.420;10.640;2023-03-14T04:38:33;9.90;99.90
40151;DHT22;25866;52.420;10.640;2023-03-14T04:40:59;10.00;99.90
40151;DHT22;25866;52.420;10.640;2023-03-14T04:43:26;10.00;99.90
40151;DHT22;25866;52.420;10.640;2023-03-14T04:59:19;10.10;99.90
40151;DHT22;25866;52.420;10.640;2023-03-14T05:01:45;10.10;99.90
40151;DHT22;25866;52.420;10.640;2023-03-14T05:04:11;10.00;99.90
40151;DHT22;25866;52.420;10.640;2023-03-14T05:06:36;10.00;99.90
40151;DHT22;25866;52.420;10.640;2023-03-14T05:09:02;10.00;99.90
40151;DHT22;25866;52.420;10.640;2023-03-14T05:11:30;10.00;99.90
40151;DHT22;25866;52.420;10.640;2023-03-14T05:13:56;9.90;99.90
40151;DHT22;25866;52.420;10.640;2023-03-14T05:16:21;9.90;99.90
40151;DHT22;25866;52.420;10.640;2023-03-14T05:18:47;9.90;99.90
40151;DHT22;25866;52.420;10.640;2023-03-14T05:21:12;9.80;99.90
40151;DHT22;25866;52.420;10.640;2023-03-14T05:23:38;9.80;99.90
40151;DHT22;25866;52.420;10.640;2023-03-14T05:26:04;9.70;99.90
40151;DHT22;25866;52.420;10.640;2023-03-14T05:28:30;9.60;99.90
40151;DHT22;25866;52.420;10.640;2023-03-14T05:30:55;9.60;99.90
40151;DHT22;25866;52.420;10.640;2023-03-14T05:33:21;9.60;99.90
40151;DHT22;25866;52.420;10.640;2023-03-14T05:35:46;9.60;99.90
40151;DHT22;25866;52.420;10.640;2023-03-14T05:38:12;9.50;99.90
40151;DHT22;25866;52.420;10.640;2023-03-14T05:40:38;9.40;99.90
40151;DHT22;25866;52.420;10.640;2023-03-14T05:43:03;9.50;99.90
40151;DHT22;25866;52.420;10.640;2023-03-14T05:45:29;9.50;99.90
40151;DHT22;25866;52.420;10.640;2023-03-14T05:47:54;9.50;99.90
40151;DHT22;25866;52.420;10.640;2023-03-14T05:50:20;9.60;99.90
40151;DHT22;25866;52.420;10.640;2023-03-14T05:52:46;9.50;99.90
40151;DHT22;25866;52.420;10.640;2023-03-14T05:55:11;9.50;99.90
40151;DHT22;25866;52.420;10.640;2023-03-14T05:57:37;9.50;99.90
40151;DHT22;25866;52.420;10.640;2023-03-14T06:00:03;9.50;99.90
40151;DHT22;25866;52.420;10.640;2023-03-14T06:02:29;9.50;99.90
40151;DHT22;25866;52.420;10.640;2023-03-14T06:04:54;9.60;99.90
40151;DHT22;25866;52.420;10.640;2023-03-14T06:07:20;9.60;99.90
40151;DHT22;25866;52.420;10.640;2023-03-14T06:09:46;9.60;99.90
40151;DHT22;25866;52.420;10.640;2023-03-14T06:12:11;9.50;99.90
40151;DHT22;25866;52.420;10.640;2023-03-14T06:14:37;9.50;99.90
40151;DHT22;25866;52.420;10.640;2023-03-14T06:17:02;9.50;99.90
40151;DHT22;25866;52.420;10.640;2023-03-14T06:19:28;9.50;99.90
40151;DHT22;25866;52.420;10.640;2023-03-14T06:21:54;9.50;99.90
40151;DHT22;25866;52.420;10.640;2023-03-14T06:24:19;9.50;99.90
40151;DHT22;25866;52.420;10.640;2023-03-14T06:26:45;9.60;99.90
40151;DHT22;25866;52.420;10.640;2023-03-14T06:29:11;9.60;99.90
40151;DHT22;25866;52.420;10.640;2023-03-14T06:31:36;9.70;99.90
40151;DHT22;25866;52.420;10.640;2023-03-14T06:34:02;9.70;99.90
40151;DHT22;25866;52.420;10.640;2023-03-14T06:36:28;9.80;99.90
40151;DHT22;25866;52.420;10.640;2023-03-14T06:38:53;9.80;99.90
40151;DHT22;25866;52.420;10.640;2023-03-14T06:41:19;9.80;99.90
40151;DHT22;25866;52.420;10.640;2023-03-14T06:43:45;9.80;99.90
40151;DHT22;25866;52.420;10.640;2023-03-14T06:46:11;9.80;99.90
40151;DHT22;25866;52.420;10.640;2023-03-14T06:48:36;9.80;99.90
40151;DHT22;25866;52.420;10.640;2023-03-14T06:51:02;9.80;99.90
40151;DHT22;25866;52.420;10.640;2023-03-14T06:53:27;9.90;99.90
40151;DHT22;25866;52.420;10.640;2023-03-14T06:55:53;10.00;99.90
40151;DHT22;25866;52.420;10.640;2023-03-14T06:58:19;10.10;99.90
40151;DHT22;25866;52.420;10.640;2023-03-14T07:00:45;10.20;99.90
40151;DHT22;25866;52.420;10.640;2023-03-14T07:03:13;10.30;99.90
40151;DHT22;25866;52.420;10.640;2023-03-14T07:05:38;10.40;99.90
40151;DHT22;25866;52.420;10.640;2023-03-14T07:08:06;10.50;99.90
40151;DHT22;25866;52.420;10.640;2023-03-14T07:10:32;10.60;99.90
40151;DHT22;25866;52.420;10.640;2023-03-14T07:12:57;10.70;99.90
40151;DHT22;25866;52.420;10.640;2023-03-14T07:15:23;10.60;99.90
40151;DHT22;25866;52.420;10.640;2023-03-14T07:17:48;10.50;99.90
40151;DHT22;25866;52.420;10.640;2023-03-14T07:20:14;10.60;99.90
40151;DHT22;25866;52.420;10.640;2023-03-14T07:22:40;10.60;99.90
40151;DHT22;25866;52.420;10.640;2023-03-14T07:25:06;10.60;99.90
40151;DHT22;25866;52.420;10.640;2023-03-14T07:27:32;10.60;99.90
40151;DHT22;25866;52.420;10.640;2023-03-14T07:29:57;10.60;99.90
40151;DHT22;25866;52.420;10.640;2023-03-14T07:32:23;10.70;99.90
40151;DHT22;25866;52.420;10.640;2023-03-14T07:34:49;10.70;99.90
40151;DHT22;25866;52.420;10.640;2023-03-14T07:37:14;10.70;99.90
40151;DHT22;25866;52.420;10.640;2023-03-14T07:39:40;10.80;99.90
40151;DHT22;25866;52.420;10.640;2023-03-14T07:42:05;10.80;99.90
40151;DHT22;25866;52.420;10.640;2023-03-14T07:44:31;10.70;99.90
40151;DHT22;25866;52.420;10.640;2023-03-14T07:46:57;10.80;99.90
40151;DHT22;25866;52.420;10.640;2023-03-14T07:49:23;10.90;99.90
40151;DHT22;25866;52.420;10.640;2023-03-14T07:51:49;11.00;99.90
40151;DHT22;25866;52.420;10.640;2023-03-14T07:54:15;10.90;99.90
40151;DHT22;25866;52.420;10.640;2023-03-14T07:56:40;10.90;99.90
40151;DHT22;25866;52.420;10.640;2023-03-14T07:59:06;10.90;99.90
40151;DHT22;25866;52.420;10.640;2023-03-14T08:01:32;10.90;99.90
40151;DHT22;25866;52.420;10.640;2023-03-14T08:03:58;10.90;99.90
40151;DHT22;25866;52.420;10.640;2023-03-14T08:06:24;11.00;99.90
40151;DHT22;25866;52.420;10.640;2023-03-14T08:08:50;10.90;99.90
40151;DHT22;25866;52.420;10.640;2023-03-14T08:11:16;11.00;99.90
40151;DHT22;25866;52.420;10.640;2023-03-14T08:13:41;11.00;99.90
40151;DHT22;25866;52.420;10.640;2023-03-14T08:16:08;10.90;99.90
40151;DHT22;25866;52.420;10.640;2023-03-14T08:18:34;10.90;99.90
40151;DHT22;25866;52.420;10.640;2023-03-14T08:20:59;11.00;99.90
40151;DHT22;25866;52.420;10.640;2023-03-14T08:23:25;11.00;99.90
40151;DHT22;25866;52.420;10.640;2023-03-14T08:25:51;11.10;99.90
40151;DHT22;25866;52.420;10.640;2023-03-14T08:28:17;11.10;99.90
40151;DHT22;25866;52.420;10.640;2023-03-14T08:30:43;11.20;99.90
40151;DHT22;25866;52.420;10.640;2023-03-14T08:33:09;11.30;99.90
40151;DHT22;25866;52.420;10.640;2023-03-14T08:35:37;11.40;99.90
40151;DHT22;25866;52.420;10.640;2023-03-14T08:38:02;11.30;99.90
40151;DHT22;25866;52.420;10.640;2023-03-14T08:40:28;11.30;99.90
40151;DHT22;25866;52.420;10.640;2023-03-14T08:42:54;11.30;99.90
40151;DHT22;25866;52.420;10.640;2023-03-14T08:45:19;11.30;99.90
40151;DHT22;25866;52.420;10.640;2023-03-14T08:47:45;11.40;99.90
40151;DHT22;25866;52.420;10.640;2023-03-14T08:50:12;11.30;99.90
40151;DHT22;25866;52.420;10.640;2023-03-14T08:52:38;11.30;99.90
40151;DHT22;25866;52.420;10.640;2023-03-14T08:55:07;11.30;99.90
40151;DHT22;25866;52.420;10.640;2023-03-14T08:57:32;11.40;99.90
40151;DHT22;25866;52.420;10.640;2023-03-14T08:59:58;11.40;99.90
40151;DHT22;25866;52.420;10.640;2023-03-14T09:02:25;11.50;99.90
40151;DHT22;25866;52.420;10.640;2023-03-14T09:04:51;11.40;99.90
40151;DHT22;25866;52.420;10.640;2023-03-14T09:07:17;11.40;99.90
40151;DHT22;25866;52.420;10.640;2023-03-14T09:09:43;11.40;99.90
40151;DHT22;25866;52.420;10.640;2023-03-14T09:12:09;11.50;99.90
40151;DHT22;25866;52.420;10.640;2023-03-14T09:14:34;11.50;99.90
40151;DHT22;25866;52.420;10.640;2023-03-14T09:17:00;11.50;99.90
40151;DHT22;25866;52.420;10.640;2023-03-14T09:19:26;11.40;99.90
40151;DHT22;25866;52.420;10.640;2023-03-14T09:21:51;11.40;99.90
40151;DHT22;25866;52.420;10.640;2023-03-14T09:24:17;11.30;99.90
40151;DHT22;25866;52.420;10.640;2023-03-14T09:26:43;11.30;99.90
40151;DHT22;25866;52.420;10.640;2023-03-14T09:29:09;11.20;99.90
40151;DHT22;25866;52.420;10.640;2023-03-14T09:31:35;11.10;99.90
40151;DHT22;25866;52.420;10.640;2023-03-14T09:34:00;11.20;99.90
40151;DHT22;25866;52.420;10.640;2023-03-14T09:36:26;11.20;99.90
40151;DHT22;25866;52.420;10.640;2023-03-14T09:38:52;11.40;99.90
40151;DHT22;25866;52.420;10.640;2023-03-14T09:44:01;11.60;99.90
40151;DHT22;25866;52.420;10.640;2023-03-14T09:46:29;11.60;99.90
40151;DHT22;25866;52.420;10.640;2023-03-14T09:48:56;11.70;99.90
40151;DHT22;25866;52.420;10.640;2023-03-14T09:51:22;11.80;99.90
40151;DHT22;25866;52.420;10.640;2023-03-14T09:53:49;11.80;99.90
40151;DHT22;25866;52.420;10.640;2023-03-14T09:56:27;12.00;99.90
40151;DHT22;25866;52.420;10.640;2023-03-14T09:58:57;12.00;99.90
40151;DHT22;25866;52.420;10.640;2023-03-14T10:01:29;12.10;99.90
40151;DHT22;25866;52.420;10.640;2023-03-14T10:03:57;12.00;99.90
40151;DHT22;25866;52.420;10.640;2023-03-14T10:06:26;11.90;99.90
40151;DHT22;25866;52.420;10.640;2023-03-14T10:08:53;11.90;99.90
40151;DHT22;25866;52.420;10.640;2023-03-14T10:11:20;12.10;99.90
40151;DHT22;25866;52.420;10.640;2023-03-14T10:14:08;12.20;99.90
40151;DHT22;25866;52.420;10.640;2023-03-14T10:16:46;12.40;99.90
40151;DHT22;25866;52.420;10.640;2023-03-14T10:19:16;12.70;99.90
40151;DHT22;25866;52.420;10.640;2023-03-14T10:21:53;12.90;99.90
40151;DHT22;25866;52.420;10.640;2023-03-14T10:26:54;12.80;99.90
40151;DHT22;25866;52.420;10.640;2023-03-14T10:29:20;12.80;99.90
40151;DHT22;25866;52.420;10.640;2023-03-14T10:32:06;12.70;99.90
40151;DHT22;25866;52.420;10.640;2023-03-14T10:34:35;12.70;99.90
40151;DHT22;25866;52.420;10.640;2023-03-14T10:37:28;12.40;99.90
40151;DHT22;25866;52.420;10.640;2023-03-14T10:39:56;12.30;99.90
40151;DHT22;25866;52.420;10.640;2023-03-14T10:42:28;12.30;99.90
40151;DHT22;25866;52.420;10.640;2023-03-14T10:45:00;12.20;99.90
40151;DHT22;25866;52.420;10.640;2023-03-14T10:47:27;12.10;99.90
40151;DHT22;25866;52.420;10.640;2023-03-14T10:49:54;12.20;99.90
40151;DHT22;25866;52.420;10.640;2023-03-14T10:52:25;12.20;99.90
40151;DHT22;25866;52.420;10.640;2023-03-14T10:55:01;12.20;99.90
40151;DHT22;25866;52.420;10.640;2023-03-14T10:57:27;12.20;99.90
40151;DHT22;25866;52.420;10.640;2023-03-14T10:59:54;12.10;99.90
40151;DHT22;25866;52.420;10.640;2023-03-14T11:07:45;12.40;99.90
40151;DHT22;25866;52.420;10.640;2023-03-14T11:19:00;12.90;99.90
40151;DHT22;25866;52.420;10.640;2023-03-14T11:32:02;13.00;99.90
40151;DHT22;25866;52.420;10.640;2023-03-14T11:37:34;12.70;99.90
40151;DHT22;25866;52.420;10.640;2023-03-14T11:40:17;12.70;99.90
40151;DHT22;25866;52.420;10.640;2023-03-14T11:42:46;12.60;99.90
40151;DHT22;25866;52.420;10.640;2023-03-14T11:45:37;12.60;99.90
40151;DHT22;25866;52.420;10.640;2023-03-14T11:50:53;12.40;99.90
40151;DHT22;25866;52.420;10.640;2023-03-14T11:53:46;12.40;99.90
40151;DHT22;25866;52.420;10.640;2023-03-14T11:57:11;12.40;99.90
40151;DHT22;25866;52.420;10.640;2023-03-14T12:02:20;12.40;99.90
40151;DHT22;25866;52.420;10.640;2023-03-14T12:07:33;12.30;99.90
40151;DHT22;25866;52.420;10.640;2023-03-14T12:10:02;12.10;99.90
40151;DHT22;25866;52.420;10.640;2023-03-14T12:12:29;12.00;99.90
40151;DHT22;25866;52.420;10.640;2023-03-14T12:15:01;11.80;99.90
40151;DHT22;25866;52.420;10.640;2023-03-14T12:17:38;11.70;99.90
40151;DHT22;25866;52.420;10.640;2023-03-14T12:22:54;10.60;99.90
40151;DHT22;25866;52.420;10.640;2023-03-14T12:25:27;10.00;99.90
40151;DHT22;25866;52.420;10.640;2023-03-14T12:30:29;9.00;99.90
40151;DHT22;25866;52.420;10.640;2023-03-14T12:35:46;8.40;99.90
40151;DHT22;25866;52.420;10.640;2023-03-14T12:38:25;8.30;99.90
40151;DHT22;25866;52.420;10.640;2023-03-14T12:41:01;8.10;99.90
40151;DHT22;25866;52.420;10.640;2023-03-14T12:43:34;7.90;99.90
40151;DHT22;25866;52.420;10.640;2023-03-14T12:46:08;7.50;99.90
40151;DHT22;25866;52.420;10.640;2023-03-14T12:48:34;7.40;99.90
40151;DHT22;25866;52.420;10.640;2023-03-14T12:51:05;7.20;99.90
40151;DHT22;25866;52.420;10.640;2023-03-14T12:59:37;6.70;99.90
40151;DHT22;25866;52.420;10.640;2023-03-14T13:04:47;6.40;99.90
40151;DHT22;25866;52.420;10.640;2023-03-14T13:07:32;6.30;99.90
40151;DHT22;25866;52.420;10.640;2023-03-14T13:12:47;6.10;99.90
40151;DHT22;25866;52.420;10.640;2023-03-14T13:15:24;5.90;99.90
40151;DHT22;25866;52.420;10.640;2023-03-14T13:17:52;5.80;99.90
40151;DHT22;25866;52.420;10.640;2023-03-14T13:20:33;5.60;99.90
40151;DHT22;25866;52.420;10.640;2023-03-14T13:23:00;5.50;99.90
40151;DHT22;25866;52.420;10.640;2023-03-14T13:25:31;5.50;99.90
40151;DHT22;25866;52.420;10.640;2023-03-14T13:27:58;5.60;99.90
40151;DHT22;25866;52.420;10.640;2023-03-14T13:30:29;5.60;99.90
40151;DHT22;25866;52.420;10.640;2023-03-14T13:33:04;5.60;99.90
40151;DHT22;25866;52.420;10.640;2023-03-14T13:35:39;5.40;99.90
40151;DHT22;25866;52.420;10.640;2023-03-14T13:38:05;5.30;99.90
40151;DHT22;25866;52.420;10.640;2023-03-14T13:40:43;5.20;99.90
40151;DHT22;25866;52.420;10.640;2023-03-14T13:43:31;5.10;99.90
40151;DHT22;25866;52.420;10.640;2023-03-14T13:48:33;5.20;99.90
40151;DHT22;25866;52.420;10.640;2023-03-14T13:51:03;5.10;99.90
40151;DHT22;25866;52.420;10.640;2023-03-14T13:53:30;5.00;99.90
40151;DHT22;25866;52.420;10.640;2023-03-14T13:55:56;5.00;99.90
40151;DHT22;25866;52.420;10.640;2023-03-14T13:58:27;4.90;99.90
40151;DHT22;25866;52.420;10.640;2023-03-14T14:01:06;4.70;99.90
40151;DHT22;25866;52.420;10.640;2023-03-14T14:03:41;4.70;99.90
40151;DHT22;25866;52.420;10.640;2023-03-14T14:06:25;4.70;99.90
40151;DHT22;25866;52.420;10.640;2023-03-14T14:08:52;4.80;99.90
40151;DHT22;25866;52.420;10.640;2023-03-14T14:11:39;4.70;99.90
40151;DHT22;25866;52.420;10.640;2023-03-14T14:14:15;4.80;99.90
40151;DHT22;25866;52.420;10.640;2023-03-14T14:16:43;4.80;99.90
40151;DHT22;25866;52.420;10.640;2023-03-14T14:19:09;4.90;99.90
40151;DHT22;25866;52.420;10.640;2023-03-14T14:21:35;4.90;99.90
40151;DHT22;25866;52.420;10.640;2023-03-14T14:24:01;5.00;99.90
40151;DHT22;25866;52.420;10.640;2023-03-14T14:26:27;4.90;99.90
40151;DHT22;25866;52.420;10.640;2023-03-14T14:29:02;5.00;99.90
40151;DHT22;25866;52.420;10.640;2023-03-14T14:31:28;5.00;99.90
40151;DHT22;25866;52.420;10.640;2023-03-14T14:34:04;5.00;99.90
40151;DHT22;25866;52.420;10.640;2023-03-14T14:39:10;5.00;99.90
40151;DHT22;25866;52.420;10.640;2023-03-14T14:41:40;5.00;99.90
40151;DHT22;25866;52.420;10.640;2023-03-14T14:44:06;5.00;99.90
40151;DHT22;25866;52.420;10.640;2023-03-14T14:46:33;5.10;99.90
40151;DHT22;25866;52.420;10.640;2023-03-14T14:49:19;5.20;99.90
40151;DHT22;25866;52.420;10.640;2023-03-14T14:51:50;5.20;99.90
40151;DHT22;25866;52.420;10.640;2023-03-14T14:54:18;5.20;99.90
40151;DHT22;25866;52.420;10.640;2023-03-14T14:56:52;5.30;99.90
40151;DHT22;25866;52.420;10.640;2023-03-14T14:59:23;5.30;99.90
40151;DHT22;25866;52.420;10.640;2023-03-14T15:01:49;5.30;99.90
40151;DHT22;25866;52.420;10.640;2023-03-14T15:04:16;5.30;99.90
40151;DHT22;25866;52.420;10.640;2023-03-14T15:06:47;5.20;99.90
40151;DHT22;25866;52.420;10.640;2023-03-14T15:09:14;5.30;99.90
40151;DHT22;25866;52.420;10.640;2023-03-14T15:11:41;5.20;99.90
40151;DHT22;25866;52.420;10.640;2023-03-14T15:14:07;5.10;99.90
40151;DHT22;25866;52.420;10.640;2023-03-14T15:16:33;4.90;99.90
40151;DHT22;25866;52.420;10.640;2023-03-14T15:19:01;4.70;99.90
40151;DHT22;25866;52.420;10.640;2023-03-14T15:21:28;4.70;99.90
40151;DHT22;25866;52.420;10.640;2023-03-14T15:23:54;4.70;99.90
40151;DHT22;25866;52.420;10.640;2023-03-14T15:26:25;4.70;99.90
40151;DHT22;25866;52.420;10.640;2023-03-14T15:28:52;4.80;99.90
40151;DHT22;25866;52.420;10.640;2023-03-14T15:31:19;4.90;99.90
40151;DHT22;25866;52.420;10.640;2023-03-14T15:33:46;5.10;99.90
40151;DHT22;25866;52.420;10.640;2023-03-14T15:36:23;5.20;99.90
40151;DHT22;25866;52.420;10.640;2023-03-14T15:38:50;5.40;99.90
40151;DHT22;25866;52.420;10.640;2023-03-14T15:41:17;5.50;99.90
40151;DHT22;25866;52.420;10.640;2023-03-14T15:43:44;5.50;99.90
40151;DHT22;25866;52.420;10.640;2023-03-14T15:46:10;5.60;99.90
40151;DHT22;25866;52.420;10.640;2023-03-14T15:48:36;5.60;99.90
40151;DHT22;25866;52.420;10.640;2023-03-14T15:51:02;5.60;99.90
40151;DHT22;25866;52.420;10.640;2023-03-14T15:53:28;5.50;99.90
40151;DHT22;25866;52.420;10.640;2023-03-14T15:55:54;5.50;99.90
40151;DHT22;25866;52.420;10.640;2023-03-14T15:58:20;5.50;99.90
40151;DHT22;25866;52.420;10.640;2023-03-14T16:00:46;5.50;99.90
40151;DHT22;25866;52.420;10.640;2023-03-14T16:03:12;5.50;99.90
40151;DHT22;25866;52.420;10.640;2023-03-14T16:05:39;5.40;99.90
40151;DHT22;25866;52.420;10.640;2023-03-14T16:08:05;5.40;99.90
40151;DHT22;25866;52.420;10.640;2023-03-14T16:10:31;5.50;99.90
40151;DHT22;25866;52.420;10.640;2023-03-14T16:12:57;5.50;99.90
40151;DHT22;25866;52.420;10.640;2023-03-14T16:15:22;5.50;99.90
40151;DHT22;25866;52.420;10.640;2023-03-14T16:17:52;5.50;99.90
40151;DHT22;25866;52.420;10.640;2023-03-14T16:20:18;5.50;99.90
40151;DHT22;25866;52.420;10.640;2023-03-14T16:22:45;5.50;99.90
40151;DHT22;25866;52.420;10.640;2023-03-14T16:25:11;5.60;99.90
40151;DHT22;25866;52.420;10.640;2023-03-14T16:27:37;5.60;99.90
40151;DHT22;25866;52.420;10.640;2023-03-14T16:30:03;5.60;99.90
40151;DHT22;25866;52.420;10.640;2023-03-14T16:32:29;5.60;99.90
40151;DHT22;25866;52.420;10.640;2023-03-14T16:34:56;5.60;99.90
40151;DHT22;25866;52.420;10.640;2023-03-14T16:37:25;5.60;99.90
40151;DHT22;25866;52.420;10.640;2023-03-14T16:39:52;5.60;99.90
40151;DHT22;25866;52.420;10.640;2023-03-14T16:42:19;5.60;99.90
40151;DHT22;25866;52.420;10.640;2023-03-14T16:44:46;5.40;99.90
40151;DHT22;25866;52.420;10.640;2023-03-14T16:47:11;5.40;99.90
40151;DHT22;25866;52.420;10.640;2023-03-14T16:49:37;5.30;99.90
40151;DHT22;25866;52.420;10.640;2023-03-14T16:52:04;5.30;99.90
40151;DHT22;25866;52.420;10.640;2023-03-14T16:54:31;5.20;99.90
40151;DHT22;25866;52.420;10.640;2023-03-14T16:56:56;5.20;99.90